Melita — UBCP6 — position and weather

sailwx.info

Track history (hours):
 
Tides and Currents Weather Stations Pressure Air Temp Water Temp Dewpoint Dewpoint Depression Visibility Wind Speed Wind Dir Waves Ship Positions

Melita

Last reported at 2018-Apr-18 11:57 UTC. Time now 2018-Apr-19 23:25 UTC.
Position N 45°32' E 036°47'.

Length 110 m; draft 2.8 m.

Type: Cargo ship. MMSI: 273395390.

Date/timePositionNaut miles runAvg speedWind from/ knotsBaromVisibWave heightAir tempDewpointWater temp
2018-Apr-18 11:57N 45°32' E 036°47'4 7.2
2018-Apr-18 11:20N 45°28' E 036°43'2 7.4
2018-Apr-18 11:00N 45°26' E 036°42'4 7.3
2018-Apr-18 10:30N 45°23' E 036°40'4 7.7
2018-Apr-18 10:00N 45°20' E 036°36'4 8.5
2018-Apr-18 09:31N 45°19' E 036°31'5 6.6
2018-Apr-18 08:45N 45°14' E 036°29'2 5.2
2018-Apr-18 08:26N 45°12' E 036°30'1 2.4
2018-Apr-18 07:53N 45°11' E 036°30'0 0.0
2018-Apr-18 07:26N 45°11' E 036°30'0 0.0
2018-Apr-18 06:59N 45°11' E 036°30'0 0.0
2018-Apr-18 06:20N 45°11' E 036°30'0 0.1
2018-Apr-18 05:59N 45°11' E 036°31'0 1.0
2018-Apr-18 05:30N 45°10' E 036°31'3 4.8
2018-Apr-18 04:59N 45°09' E 036°33'0 0.0
2018-Apr-18 04:29N 45°09' E 036°33'0 0.0
2018-Apr-18 03:56N 45°09' E 036°33'0 0.0
2018-Apr-18 03:26N 45°09' E 036°33'0 0.0
2018-Apr-18 02:59N 45°09' E 036°33'0 0.0
2018-Apr-18 01:05N 45°09' E 036°33'0 0.0
2018-Apr-18 00:47N 45°09' E 036°33'0 0.0
2018-Apr-18 00:17N 45°09' E 036°33'0 0.0
2018-Apr-17 23:59N 45°09' E 036°33'0 0.0
2018-Apr-17 23:26N 45°09' E 036°33'0 0.0
2018-Apr-17 21:35N 45°09' E 036°33'0 0.1
2018-Apr-17 21:26N 45°09' E 036°33'0 0.0
2018-Apr-17 20:08N 45°09' E 036°33'0 0.0
2018-Apr-17 18:02N 45°09' E 036°33'0 0.1
2018-Apr-17 17:59N 45°09' E 036°33'0 0.0
2018-Apr-17 17:29N 45°09' E 036°33'0 0.0
2018-Apr-17 16:41N 45°09' E 036°33'0 0.0
2018-Apr-17 15:53N 45°09' E 036°33'0 0.0
2018-Apr-17 15:23N 45°09' E 036°33'0 0.0
2018-Apr-17 14:59N 45°09' E 036°33'0 0.0
2018-Apr-17 14:11N 45°09' E 036°33'0 0.0
2018-Apr-17 13:56N 45°09' E 036°33'0 0.0
2018-Apr-17 13:29N 45°09' E 036°33'0 0.0
2018-Apr-17 12:59N 45°09' E 036°33'0 0.0
2018-Apr-17 12:29N 45°09' E 036°33'0 0.0
2018-Apr-17 11:59N 45°09' E 036°33'0 0.1
2018-Apr-17 11:29N 45°09' E 036°33'0 0.0
2018-Apr-17 10:26N 45°09' E 036°33'0 0.0
2018-Apr-17 09:50N 45°09' E 036°33'0 0.0
2018-Apr-17 09:23N 45°09' E 036°33'0 0.0
2018-Apr-17 08:59N 45°09' E 036°33'0 0.0
2018-Apr-17 08:29N 45°09' E 036°33'0 0.0
2018-Apr-17 07:08N 45°09' E 036°33'0 0.0
2018-Apr-17 06:50N 45°09' E 036°33'0 0.0
2018-Apr-17 05:56N 45°09' E 036°33'0 0.0
2018-Apr-17 05:08N 45°09' E 036°33'0 0.0
2018-Apr-17 04:35N 45°09' E 036°33'0 0.0
2018-Apr-17 04:26N 45°09' E 036°33'0 0.0
2018-Apr-17 03:56N 45°09' E 036°33'0 0.1
2018-Apr-17 03:29N 45°09' E 036°33'0 0.0
2018-Apr-17 02:59N 45°09' E 036°33'0 0.0
2018-Apr-17 02:29N 45°09' E 036°33'0 0.0
2018-Apr-17 01:59N 45°09' E 036°33'0 0.0
2018-Apr-17 01:17N 45°09' E 036°33'0 0.0
2018-Apr-17 00:59N 45°09' E 036°33'0 0.0
2018-Apr-16 23:11N 45°09' E 036°33'0 0.0
2018-Apr-16 22:50N 45°09' E 036°33'0 0.0
2018-Apr-16 14:17N 45°09' E 036°34'2 6.3
2018-Apr-16 13:58N 45°10' E 036°31'6 6.1
2018-Apr-16 12:59N 45°16' E 036°28'3 6.4
2018-Apr-16 12:29N 45°18' E 036°30'3 6.8
2018-Apr-16 12:00N 45°20' E 036°34'3 6.7
2018-Apr-16 11:30N 45°21' E 036°39'3 6.0
2018-Apr-16 11:00N 45°24' E 036°40'3 6.0
2018-Apr-16 10:30N 45°27' E 036°40'2 0.4
2018-Apr-16 04:14N 45°28' E 036°37'0 0.0
2018-Apr-16 03:50N 45°28' E 036°37'0 0.0
2018-Apr-16 03:28N 45°28' E 036°37'0 0.0
2018-Apr-15 16:06N 45°28' E 036°37'0 0.0
2018-Apr-15 15:42N 45°28' E 036°37'0 0.0
2018-Apr-15 14:48N 45°28' E 036°37'0 0.0
2018-Apr-15 14:24N 45°28' E 036°37'0 0.0
2018-Apr-15 11:18N 45°28' E 036°37'0 0.0
2018-Apr-15 10:57N 45°28' E 036°37'0 0.0
2018-Apr-15 10:21N 45°28' E 036°37'0 0.0
2018-Apr-14 15:27N 45°28' E 036°37'0 0.0
2018-Apr-14 13:03N 45°28' E 036°37'0 0.0
2018-Apr-14 12:51N 45°28' E 036°37'0 0.0
2018-Apr-14 12:30N 45°28' E 036°37'0 0.0
2018-Apr-14 12:00N 45°28' E 036°37'0 0.0
2018-Apr-14 11:30N 45°28' E 036°37'0 0.0
2018-Apr-14 11:00N 45°28' E 036°37'0 0.0
2018-Apr-14 03:15N 45°28' E 036°37'0 0.0
2018-Apr-13 14:08N 45°28' E 036°37'0 0.0
2018-Apr-13 13:53N 45°28' E 036°37'0 0.0
2018-Apr-13 10:30N 45°28' E 036°37'0 0.0
2018-Apr-13 10:00N 45°28' E 036°37'0 0.1
2018-Apr-13 09:29N 45°28' E 036°37'2 4.9
2018-Apr-13 09:00N 45°29' E 036°40'  
2018-Apr-08 17:02N 45°33' E 036°49'2 7.1
2018-Apr-08 16:43N 45°31' E 036°46'2 7.0
2018-Apr-08 16:30N 45°30' E 036°45'3 6.7
2018-Apr-08 16:00N 45°27' E 036°42'3 7.0
2018-Apr-08 15:30N 45°24' E 036°41'3 6.5
2018-Apr-08 15:00N 45°21' E 036°40'3 6.1
2018-Apr-08 14:30N 45°20' E 036°36'3 6.3
2018-Apr-08 14:00N 45°19' E 036°31'3 5.5
2018-Apr-08 13:30N 45°17' E 036°29'2 4.4
2018-Apr-08 12:57N 45°14' E 036°28'2 3.5
2018-Apr-08 12:30N 45°13' E 036°30'2 3.5
2018-Apr-08 12:00N 45°11' E 036°31'  
Track history (hours):
 
Tides and Currents Weather Stations Pressure Air Temp Water Temp Dewpoint Dewpoint Depression Visibility Wind Speed Wind Dir Waves Ship Positions

Melita

Last reported at 2018-Apr-18 11:57 UTC. Time now 2018-Apr-19 23:25 UTC.
Position N 45°32' E 036°47'.

Length 110 m; draft 2.8 m.

Type: Cargo ship. MMSI: 273395390.

Date/timePositionNaut miles runAvg speedWind from/ knotsBaromVisibWave heightAir tempDewpointWater temp
2018-Apr-18 11:57N 45°32' E 036°47'4 7.2
2018-Apr-18 11:20N 45°28' E 036°43'2 7.4
2018-Apr-18 11:00N 45°26' E 036°42'4 7.3
2018-Apr-18 10:30N 45°23' E 036°40'4 7.7
2018-Apr-18 10:00N 45°20' E 036°36'4 8.5
2018-Apr-18 09:31N 45°19' E 036°31'5 6.6
2018-Apr-18 08:45N 45°14' E 036°29'2 5.2
2018-Apr-18 08:26N 45°12' E 036°30'1 2.4
2018-Apr-18 07:53N 45°11' E 036°30'0 0.0
2018-Apr-18 07:26N 45°11' E 036°30'0 0.0
2018-Apr-18 06:59N 45°11' E 036°30'0 0.0
2018-Apr-18 06:20N 45°11' E 036°30'0 0.1
2018-Apr-18 05:59N 45°11' E 036°31'0 1.0
2018-Apr-18 05:30N 45°10' E 036°31'3 4.8
2018-Apr-18 04:59N 45°09' E 036°33'0 0.0
2018-Apr-18 04:29N 45°09' E 036°33'0 0.0
2018-Apr-18 03:56N 45°09' E 036°33'0 0.0
2018-Apr-18 03:26N 45°09' E 036°33'0 0.0
2018-Apr-18 02:59N 45°09' E 036°33'0 0.0
2018-Apr-18 01:05N 45°09' E 036°33'0 0.0
2018-Apr-18 00:47N 45°09' E 036°33'0 0.0
2018-Apr-18 00:17N 45°09' E 036°33'0 0.0
2018-Apr-17 23:59N 45°09' E 036°33'0 0.0
2018-Apr-17 23:26N 45°09' E 036°33'0 0.0
2018-Apr-17 21:35N 45°09' E 036°33'0 0.1
2018-Apr-17 21:26N 45°09' E 036°33'0 0.0
2018-Apr-17 20:08N 45°09' E 036°33'0 0.0
2018-Apr-17 18:02N 45°09' E 036°33'0 0.1
2018-Apr-17 17:59N 45°09' E 036°33'0 0.0
2018-Apr-17 17:29N 45°09' E 036°33'0 0.0
2018-Apr-17 16:41N 45°09' E 036°33'0 0.0
2018-Apr-17 15:53N 45°09' E 036°33'0 0.0
2018-Apr-17 15:23N 45°09' E 036°33'0 0.0
2018-Apr-17 14:59N 45°09' E 036°33'0 0.0
2018-Apr-17 14:11N 45°09' E 036°33'0 0.0
2018-Apr-17 13:56N 45°09' E 036°33'0 0.0
2018-Apr-17 13:29N 45°09' E 036°33'0 0.0
2018-Apr-17 12:59N 45°09' E 036°33'0 0.0
2018-Apr-17 12:29N 45°09' E 036°33'0 0.0
2018-Apr-17 11:59N 45°09' E 036°33'0 0.1
2018-Apr-17 11:29N 45°09' E 036°33'0 0.0
2018-Apr-17 10:26N 45°09' E 036°33'0 0.0
2018-Apr-17 09:50N 45°09' E 036°33'0 0.0
2018-Apr-17 09:23N 45°09' E 036°33'0 0.0
2018-Apr-17 08:59N 45°09' E 036°33'0 0.0
2018-Apr-17 08:29N 45°09' E 036°33'0 0.0
2018-Apr-17 07:08N 45°09' E 036°33'0 0.0
2018-Apr-17 06:50N 45°09' E 036°33'0 0.0
2018-Apr-17 05:56N 45°09' E 036°33'0 0.0
2018-Apr-17 05:08N 45°09' E 036°33'0 0.0
2018-Apr-17 04:35N 45°09' E 036°33'0 0.0
2018-Apr-17 04:26N 45°09' E 036°33'0 0.0
2018-Apr-17 03:56N 45°09' E 036°33'0 0.1
2018-Apr-17 03:29N 45°09' E 036°33'0 0.0
2018-Apr-17 02:59N 45°09' E 036°33'0 0.0
2018-Apr-17 02:29N 45°09' E 036°33'0 0.0
2018-Apr-17 01:59N 45°09' E 036°33'0 0.0
2018-Apr-17 01:17N 45°09' E 036°33'0 0.0
2018-Apr-17 00:59N 45°09' E 036°33'0 0.0
2018-Apr-16 23:11N 45°09' E 036°33'0 0.0
2018-Apr-16 22:50N 45°09' E 036°33'0 0.0
2018-Apr-16 14:17N 45°09' E 036°34'2 6.3
2018-Apr-16 13:58N 45°10' E 036°31'6 6.1
2018-Apr-16 12:59N 45°16' E 036°28'3 6.4
2018-Apr-16 12:29N 45°18' E 036°30'3 6.8
2018-Apr-16 12:00N 45°20' E 036°34'3 6.7
2018-Apr-16 11:30N 45°21' E 036°39'3 6.0
2018-Apr-16 11:00N 45°24' E 036°40'3 6.0
2018-Apr-16 10:30N 45°27' E 036°40'2 0.4
2018-Apr-16 04:14N 45°28' E 036°37'0 0.0
2018-Apr-16 03:50N 45°28' E 036°37'0 0.0
2018-Apr-16 03:28N 45°28' E 036°37'0 0.0
2018-Apr-15 16:06N 45°28' E 036°37'0 0.0
2018-Apr-15 15:42N 45°28' E 036°37'0 0.0
2018-Apr-15 14:48N 45°28' E 036°37'0 0.0
2018-Apr-15 14:24N 45°28' E 036°37'0 0.0
2018-Apr-15 11:18N 45°28' E 036°37'0 0.0
2018-Apr-15 10:57N 45°28' E 036°37'0 0.0
2018-Apr-15 10:21N 45°28' E 036°37'0 0.0
2018-Apr-14 15:27N 45°28' E 036°37'0 0.0
2018-Apr-14 13:03N 45°28' E 036°37'0 0.0
2018-Apr-14 12:51N 45°28' E 036°37'0 0.0
2018-Apr-14 12:30N 45°28' E 036°37'0 0.0
2018-Apr-14 12:00N 45°28' E 036°37'0 0.0
2018-Apr-14 11:30N 45°28' E 036°37'0 0.0
2018-Apr-14 11:00N 45°28' E 036°37'0 0.0
2018-Apr-14 03:15N 45°28' E 036°37'0 0.0
2018-Apr-13 14:08N 45°28' E 036°37'0 0.0
2018-Apr-13 13:53N 45°28' E 036°37'0 0.0
2018-Apr-13 10:30N 45°28' E 036°37'0 0.0
2018-Apr-13 10:00N 45°28' E 036°37'0 0.1
2018-Apr-13 09:29N 45°28' E 036°37'2 4.9
2018-Apr-13 09:00N 45°29' E 036°40'  
2018-Apr-08 17:02N 45°33' E 036°49'2 7.1
2018-Apr-08 16:43N 45°31' E 036°46'2 7.0
2018-Apr-08 16:30N 45°30' E 036°45'3 6.7
2018-Apr-08 16:00N 45°27' E 036°42'3 7.0
2018-Apr-08 15:30N 45°24' E 036°41'3 6.5
2018-Apr-08 15:00N 45°21' E 036°40'3 6.1
2018-Apr-08 14:30N 45°20' E 036°36'3 6.3
2018-Apr-08 14:00N 45°19' E 036°31'3 5.5
2018-Apr-08 13:30N 45°17' E 036°29'2 4.4
2018-Apr-08 12:57N 45°14' E 036°28'2 3.5
2018-Apr-08 12:30N 45°13' E 036°30'2 3.5
2018-Apr-08 12:00N 45°11' E 036°31'  

Dump ship's entire track history